Time;durP1;ratioP1;P1;durP2;ratioP2;P2;SDS_P1;SDS_P2;PMS_P1;PMS_P2;Temp;Humidity;BMP_temperature;BMP_pressure;BME280_temperature;BME280_humidity;BME280_pressure;Samples;Min_cycle;Max_cycle;Signal;HPM_P1;HPM_P2
2022/12/12 00:01:40;;;;;;;;;;;3.20;99.90;;;;;;5032519;28;19909;-66
2022/12/12 00:04:06;;;;;;;;;;;3.00;99.90;;;;;;5017227;28;20388;-65
2022/12/12 00:06:31;;;;;;;;;;;3.10;99.90;;;;;;5022697;28;19995;-66
2022/12/12 00:08:57;;;;;;;;;;;3.10;99.90;;;;;;5025989;28;20003;-66
2022/12/12 00:11:22;;;;;;;;;;;3.10;99.90;;;;;;5026100;28;19961;-65
2022/12/12 00:13:48;;;;;;;;;;;3.00;99.90;;;;;;5036054;28;20507;-66
2022/12/12 00:16:14;;;;;;;;;;;3.00;99.90;;;;;;5024521;28;19935;-66
2022/12/12 00:18:39;;;;;;;;;;;2.80;99.90;;;;;;5028026;28;20331;-65
2022/12/12 00:21:06;;;;;;;;;;;2.80;99.90;;;;;;5020867;28;19917;-67
2022/12/12 00:23:32;;;;;;;;;;;2.90;99.90;;;;;;5020205;28;20617;-66
2022/12/12 00:26:02;;;;;;;;;;;2.90;99.90;;;;;;5022619;28;19939;-65
2022/12/12 00:28:27;;;;;;;;;;;2.90;99.90;;;;;;5004178;28;19936;-64
2022/12/12 00:30:53;;;;;;;;;;;2.80;99.90;;;;;;5024680;28;20428;-67
2022/12/12 00:33:18;;;;;;;;;;;2.80;99.90;;;;;;5016851;28;20307;-66
2022/12/12 00:35:49;;;;;;;;;;;2.70;99.90;;;;;;5022578;28;19913;-66
2022/12/12 00:38:15;;;;;;;;;;;2.70;99.90;;;;;;5017959;28;20400;-66
2022/12/12 00:40:40;;;;;;;;;;;2.80;99.90;;;;;;5021724;28;19979;-65
2022/12/12 00:43:06;;;;;;;;;;;2.80;99.90;;;;;;5022139;28;19917;-65
2022/12/12 00:45:31;;;;;;;;;;;2.80;99.90;;;;;;5036178;28;19939;-67
2022/12/12 00:47:57;;;;;;;;;;;2.80;99.90;;;;;;5008357;28;19947;-65
2022/12/12 00:50:22;;;;;;;;;;;2.80;99.90;;;;;;5021811;28;19917;-66
2022/12/12 00:52:48;;;;;;;;;;;2.80;99.90;;;;;;5025983;28;19921;-65
2022/12/12 00:55:13;;;;;;;;;;;2.70;99.90;;;;;;5023441;28;19956;-66
2022/12/12 00:57:39;;;;;;;;;;;2.80;99.90;;;;;;5002574;28;19913;-66
2022/12/12 01:00:05;;;;;;;;;;;2.80;99.90;;;;;;5025098;28;20821;-67
2022/12/12 01:02:31;;;;;;;;;;;2.70;99.90;;;;;;5029190;28;20560;-66
2022/12/12 01:04:56;;;;;;;;;;;2.70;99.90;;;;;;5023370;28;19966;-66
2022/12/12 01:07:22;;;;;;;;;;;2.70;99.90;;;;;;5021876;28;20452;-65
2022/12/12 01:09:47;;;;;;;;;;;2.80;99.90;;;;;;5023780;28;20448;-66
2022/12/12 01:12:13;;;;;;;;;;;2.90;99.90;;;;;;5023530;28;19919;-67
2022/12/12 01:14:38;;;;;;;;;;;2.90;99.90;;;;;;5033061;28;19913;-66
2022/12/12 01:17:04;;;;;;;;;;;2.90;99.90;;;;;;5025712;28;19913;-65
2022/12/12 01:19:29;;;;;;;;;;;2.90;99.90;;;;;;5019767;28;19921;-65
2022/12/12 01:21:55;;;;;;;;;;;2.80;99.90;;;;;;5028388;28;20399;-67
2022/12/12 01:24:20;;;;;;;;;;;2.80;99.90;;;;;;5022591;28;20426;-66
2022/12/12 01:26:46;;;;;;;;;;;2.70;99.90;;;;;;5025043;28;19921;-66
2022/12/12 01:29:11;;;;;;;;;;;2.50;99.90;;;;;;5020477;28;19960;-66
2022/12/12 01:31:37;;;;;;;;;;;2.50;99.90;;;;;;5025316;28;20267;-65
2022/12/12 01:34:02;;;;;;;;;;;2.60;99.90;;;;;;5023158;28;19913;-67
2022/12/12 01:36:27;;;;;;;;;;;2.80;99.90;;;;;;5025296;28;19913;-66
2022/12/12 01:38:55;;;;;;;;;;;2.80;99.90;;;;;;5028976;28;20187;-66
2022/12/12 01:41:21;;;;;;;;;;;2.90;99.90;;;;;;5026276;28;19921;-67
2022/12/12 01:43:46;;;;;;;;;;;2.80;99.90;;;;;;5027136;28;19964;-66
2022/12/12 01:46:21;;;;;;;;;;;2.70;99.90;;;;;;5028565;28;19928;-66
2022/12/12 01:48:58;;;;;;;;;;;2.60;99.90;;;;;;5022541;28;19948;-65
2022/12/12 01:51:25;;;;;;;;;;;2.70;99.90;;;;;;5019402;28;20309;-66
2022/12/12 01:53:53;;;;;;;;;;;2.70;99.90;;;;;;5007095;28;19958;-66
2022/12/12 01:56:19;;;;;;;;;;;2.80;99.90;;;;;;5026079;28;20514;-67
2022/12/12 01:58:46;;;;;;;;;;;2.90;99.90;;;;;;5030438;28;20044;-68
2022/12/12 02:01:11;;;;;;;;;;;2.90;99.90;;;;;;5023240;28;19917;-66
2022/12/12 02:03:38;;;;;;;;;;;3.00;99.90;;;;;;5023627;28;20501;-66
2022/12/12 02:06:05;;;;;;;;;;;3.00;99.90;;;;;;5020985;28;19949;-66
2022/12/12 02:08:31;;;;;;;;;;;3.00;99.90;;;;;;5024720;28;20349;-66
2022/12/12 02:10:57;;;;;;;;;;;3.00;99.90;;;;;;5026381;28;19956;-65
2022/12/12 02:13:25;;;;;;;;;;;3.00;99.90;;;;;;5024147;28;19913;-66
2022/12/12 02:15:50;;;;;;;;;;;2.90;99.90;;;;;;5025063;28;19936;-66
2022/12/12 02:18:31;;;;;;;;;;;3.00;99.90;;;;;;5019307;28;19921;-65
2022/12/12 02:20:56;;;;;;;;;;;3.10;99.90;;;;;;5025132;28;19979;-66
2022/12/12 02:23:25;;;;;;;;;;;3.00;99.90;;;;;;5021436;28;19921;-68
2022/12/12 02:25:53;;;;;;;;;;;3.00;99.90;;;;;;5025109;28;19928;-67
2022/12/12 02:28:18;;;;;;;;;;;3.00;99.90;;;;;;5024269;28;20012;-67
2022/12/12 02:30:53;;;;;;;;;;;2.80;99.90;;;;;;5021289;28;20007;-66
2022/12/12 02:33:29;;;;;;;;;;;2.80;99.90;;;;;;5020515;28;20006;-66
2022/12/12 02:36:04;;;;;;;;;;;2.80;99.90;;;;;;5021730;28;20420;-66
2022/12/12 02:38:41;;;;;;;;;;;2.90;99.90;;;;;;5022728;28;19927;-66
2022/12/12 02:41:09;;;;;;;;;;;2.90;99.90;;;;;;5023841;28;19913;-66
2022/12/12 02:43:41;;;;;;;;;;;3.00;99.90;;;;;;5020082;28;19925;-65
2022/12/12 02:46:16;;;;;;;;;;;2.90;99.90;;;;;;5020172;28;20324;-65
2022/12/12 02:48:49;;;;;;;;;;;2.90;99.90;;;;;;5022874;28;19921;-65
2022/12/12 02:51:16;;;;;;;;;;;3.00;99.90;;;;;;5020723;28;19913;-66
2022/12/12 02:53:41;;;;;;;;;;;3.00;99.90;;;;;;5021921;28;20014;-65
2022/12/12 02:56:28;;;;;;;;;;;2.90;99.90;;;;;;5024595;28;19991;-65
2022/12/12 02:58:54;;;;;;;;;;;2.90;99.90;;;;;;5023259;28;20010;-66
2022/12/12 03:01:42;;;;;;;;;;;2.90;99.90;;;;;;5023673;28;19995;-66
2022/12/12 03:10:08;;;;;;;;;;;2.70;99.90;;;;;;5021977;28;19940;-68
2022/12/12 03:12:42;;;;;;;;;;;2.80;99.90;;;;;;5019121;28;20336;-65
2022/12/12 03:15:07;;;;;;;;;;;2.60;99.90;;;;;;5021114;28;19913;-65
2022/12/12 03:17:51;;;;;;;;;;;2.60;99.90;;;;;;5026464;28;19909;-65
2022/12/12 03:20:21;;;;;;;;;;;2.50;99.90;;;;;;5024424;28;19920;-66
2022/12/12 03:22:59;;;;;;;;;;;2.50;99.90;;;;;;5021606;28;20386;-66
2022/12/12 03:25:34;;;;;;;;;;;2.50;99.90;;;;;;5037388;28;20136;-65
2022/12/12 03:28:04;;;;;;;;;;;2.60;99.90;;;;;;5020003;28;19909;-64
2022/12/12 03:30:34;;;;;;;;;;;2.70;99.90;;;;;;5028637;28;19917;-65
2022/12/12 03:32:59;;;;;;;;;;;2.70;99.90;;;;;;5023049;28;19956;-65
2022/12/12 03:35:26;;;;;;;;;;;2.70;99.90;;;;;;5017287;28;20278;-67
2022/12/12 03:37:59;;;;;;;;;;;2.80;99.90;;;;;;5019436;28;19975;-66
2022/12/12 03:40:28;;;;;;;;;;;2.70;99.90;;;;;;5020493;28;20011;-66
2022/12/12 03:42:59;;;;;;;;;;;2.60;99.90;;;;;;5021297;28;19917;-65
2022/12/12 03:45:31;;;;;;;;;;;2.60;99.90;;;;;;5023892;28;19913;-65
2022/12/12 03:48:07;;;;;;;;;;;2.60;99.90;;;;;;5020772;28;20649;-66
2022/12/12 03:50:41;;;;;;;;;;;2.70;99.90;;;;;;5005651;28;19918;-66
2022/12/12 03:53:13;;;;;;;;;;;2.70;99.90;;;;;;5026602;28;19913;-66
2022/12/12 03:55:43;;;;;;;;;;;2.70;99.90;;;;;;5024362;28;20436;-67
2022/12/12 03:58:12;;;;;;;;;;;2.70;99.90;;;;;;5023531;28;20373;-67
2022/12/12 04:00:39;;;;;;;;;;;2.70;99.90;;;;;;5026401;28;20024;-68
2022/12/12 04:03:04;;;;;;;;;;;2.80;99.90;;;;;;5023560;28;20188;-67
2022/12/12 04:06:25;;;;;;;;;;;2.70;99.90;;;;;;5026119;28;20000;-65
2022/12/12 04:08:26;;;;;;;;;;;2.60;99.90;;;;;;5029472;28;19914;-65
2022/12/12 04:13:42;;;;;;;;;;;2.30;99.90;;;;;;5021488;28;19959;-66
2022/12/12 04:16:08;;;;;;;;;;;2.30;99.90;;;;;;5029914;28;20023;-66
2022/12/12 04:18:54;;;;;;;;;;;2.40;99.90;;;;;;5019470;28;20501;-67
2022/12/12 04:24:28;;;;;;;;;;;2.30;99.90;;;;;;5023505;28;19979;-65
2022/12/12 04:27:05;;;;;;;;;;;2.30;99.90;;;;;;5025053;28;20008;-66
2022/12/12 04:29:44;;;;;;;;;;;2.40;99.90;;;;;;5022135;28;19959;-65
2022/12/12 04:32:21;;;;;;;;;;;2.30;99.90;;;;;;5020476;28;19990;-66
2022/12/12 04:35:02;;;;;;;;;;;2.30;99.90;;;;;;5012615;28;19928;-66
2022/12/12 04:37:31;;;;;;;;;;;2.20;99.90;;;;;;5023912;28;20427;-65
2022/12/12 04:39:58;;;;;;;;;;;2.20;99.90;;;;;;5024254;28;19913;-66
2022/12/12 04:42:26;;;;;;;;;;;2.10;99.90;;;;;;5028102;28;19956;-65
2022/12/12 04:44:54;;;;;;;;;;;2.00;99.90;;;;;;5031955;28;19959;-65
2022/12/12 04:47:20;;;;;;;;;;;2.10;99.90;;;;;;5026714;28;20422;-65
2022/12/12 04:49:48;;;;;;;;;;;2.20;99.90;;;;;;5011925;28;19917;-67
2022/12/12 04:52:15;;;;;;;;;;;2.10;99.90;;;;;;5026841;28;20008;-65
2022/12/12 04:54:57;;;;;;;;;;;2.00;99.90;;;;;;5027765;28;19944;-66
2022/12/12 04:57:26;;;;;;;;;;;2.00;99.90;;;;;;5033933;28;20413;-66
2022/12/12 04:59:52;;;;;;;;;;;2.10;99.90;;;;;;5035097;28;19913;-66
2022/12/12 05:02:23;;;;;;;;;;;2.10;99.90;;;;;;5032284;28;20301;-66
2022/12/12 05:04:51;;;;;;;;;;;2.10;99.90;;;;;;5036294;28;20043;-67
2022/12/12 05:07:20;;;;;;;;;;;2.10;99.90;;;;;;5030352;28;19925;-66
2022/12/12 05:09:46;;;;;;;;;;;2.20;99.90;;;;;;5030769;28;20149;-66
2022/12/12 05:12:13;;;;;;;;;;;2.10;99.90;;;;;;5029398;28;19921;-65
2022/12/12 05:14:39;;;;;;;;;;;2.20;99.90;;;;;;5029336;28;19923;-67
2022/12/12 05:17:08;;;;;;;;;;;2.10;99.90;;;;;;5026526;28;19913;-67
2022/12/12 05:19:33;;;;;;;;;;;2.00;99.90;;;;;;5034725;28;19935;-65
2022/12/12 05:21:59;;;;;;;;;;;1.80;99.90;;;;;;5026233;28;20373;-66
2022/12/12 05:24:29;;;;;;;;;;;1.90;99.90;;;;;;5028856;28;19923;-66
2022/12/12 05:26:55;;;;;;;;;;;2.00;99.90;;;;;;5026328;28;20023;-65
2022/12/12 05:29:20;;;;;;;;;;;2.00;99.90;;;;;;5023077;28;19977;-67
2022/12/12 05:31:46;;;;;;;;;;;2.00;99.90;;;;;;5014530;28;19999;-67
2022/12/12 05:34:11;;;;;;;;;;;2.00;99.90;;;;;;5023885;28;19924;-65
2022/12/12 05:36:37;;;;;;;;;;;2.00;99.90;;;;;;5031772;28;19920;-66
2022/12/12 05:39:02;;;;;;;;;;;2.00;99.90;;;;;;5023575;28;19917;-66
2022/12/12 05:41:28;;;;;;;;;;;2.00;99.90;;;;;;5031515;28;19921;-66
2022/12/12 05:43:54;;;;;;;;;;;2.00;99.90;;;;;;5022205;28;20321;-67
2022/12/12 05:46:19;;;;;;;;;;;2.10;99.90;;;;;;5027824;28;20019;-66
2022/12/12 05:48:49;;;;;;;;;;;1.90;99.90;;;;;;5035660;28;19909;-66
2022/12/12 05:51:18;;;;;;;;;;;2.00;99.90;;;;;;5030666;28;20510;-65
2022/12/12 05:53:43;;;;;;;;;;;2.10;99.90;;;;;;5023155;28;21173;-66
2022/12/12 05:56:10;;;;;;;;;;;2.10;99.90;;;;;;5027322;28;19925;-67
2022/12/12 05:58:36;;;;;;;;;;;2.00;99.90;;;;;;5005246;28;19924;-68
2022/12/12 06:01:02;;;;;;;;;;;2.00;99.90;;;;;;5019737;28;19913;-67
2022/12/12 06:03:28;;;;;;;;;;;2.00;99.90;;;;;;5025697;28;20321;-67
2022/12/12 06:05:53;;;;;;;;;;;2.00;99.90;;;;;;5028700;28;20407;-66
2022/12/12 06:08:19;;;;;;;;;;;1.90;99.90;;;;;;5026604;28;20105;-68
2022/12/12 06:10:44;;;;;;;;;;;1.90;99.90;;;;;;5032007;28;20530;-66
2022/12/12 06:13:10;;;;;;;;;;;2.00;99.90;;;;;;5030274;28;19921;-67
2022/12/12 06:15:37;;;;;;;;;;;1.90;99.90;;;;;;5008337;28;19913;-69
2022/12/12 06:18:03;;;;;;;;;;;2.00;99.90;;;;;;5026475;28;20468;-67
2022/12/12 06:20:29;;;;;;;;;;;2.00;99.90;;;;;;5028950;28;19925;-66
2022/12/12 06:22:55;;;;;;;;;;;2.00;99.90;;;;;;5012021;28;19917;-66
2022/12/12 06:25:20;;;;;;;;;;;2.00;99.90;;;;;;5027953;28;20251;-66
2022/12/12 06:27:46;;;;;;;;;;;1.90;99.90;;;;;;5031118;28;19913;-66
2022/12/12 06:30:11;;;;;;;;;;;1.90;99.90;;;;;;5026372;28;20532;-67
2022/12/12 06:32:37;;;;;;;;;;;1.90;99.90;;;;;;5012072;28;20429;-68
2022/12/12 06:35:03;;;;;;;;;;;1.80;99.90;;;;;;5025845;28;19963;-68
2022/12/12 06:37:28;;;;;;;;;;;1.80;99.90;;;;;;5030175;28;19917;-67
2022/12/12 06:39:53;;;;;;;;;;;1.90;99.90;;;;;;5012328;28;19913;-68
2022/12/12 06:42:19;;;;;;;;;;;1.90;99.90;;;;;;5029406;28;20385;-67
2022/12/12 06:44:44;;;;;;;;;;;1.80;99.90;;;;;;5031867;28;20007;-68
2022/12/12 06:47:10;;;;;;;;;;;1.70;99.90;;;;;;5024264;28;19909;-68
2022/12/12 06:49:35;;;;;;;;;;;1.70;99.90;;;;;;5026633;28;20015;-68
2022/12/12 06:52:01;;;;;;;;;;;1.70;99.90;;;;;;5035431;28;19909;-69
2022/12/12 06:54:26;;;;;;;;;;;1.80;99.90;;;;;;5013108;28;19978;-68
2022/12/12 06:56:52;;;;;;;;;;;1.80;99.90;;;;;;5014949;28;20458;-68
2022/12/12 06:59:17;;;;;;;;;;;1.70;99.90;;;;;;5024631;28;20097;-69
2022/12/12 07:01:43;;;;;;;;;;;1.70;99.90;;;;;;5010122;28;19913;-68
2022/12/12 07:04:10;;;;;;;;;;;1.50;99.90;;;;;;5027963;28;19913;-69
2022/12/12 07:06:35;;;;;;;;;;;1.50;99.90;;;;;;5025033;28;19909;-69
2022/12/12 07:09:01;;;;;;;;;;;1.60;99.90;;;;;;5026463;28;20293;-68
2022/12/12 07:11:27;;;;;;;;;;;1.70;99.90;;;;;;5029513;28;20491;-69
2022/12/12 07:13:54;;;;;;;;;;;1.70;99.90;;;;;;5037558;22;20190;-61
2022/12/12 07:16:19;;;;;;;;;;;1.60;99.90;;;;;;5022301;28;19943;-61
2022/12/12 07:18:45;;;;;;;;;;;1.50;99.90;;;;;;5019345;28;19909;-61
2022/12/12 07:21:13;;;;;;;;;;;1.50;99.90;;;;;;5025297;28;20286;-60
2022/12/12 07:23:39;;;;;;;;;;;1.50;99.90;;;;;;5010326;28;20036;-60
2022/12/12 07:26:05;;;;;;;;;;;1.40;99.90;;;;;;5006174;28;19941;-62
2022/12/12 07:28:31;;;;;;;;;;;1.50;99.90;;;;;;5010192;28;19921;-61
2022/12/12 07:30:57;;;;;;;;;;;1.60;99.90;;;;;;5000834;28;19922;-59
2022/12/12 07:33:22;;;;;;;;;;;1.60;99.90;;;;;;4999454;28;20285;-60
2022/12/12 07:35:48;;;;;;;;;;;1.50;99.90;;;;;;5001357;28;20385;-59
2022/12/12 07:38:14;;;;;;;;;;;1.50;99.90;;;;;;4995939;28;20005;-61
2022/12/12 07:40:40;;;;;;;;;;;1.50;99.90;;;;;;4999220;28;20035;-60
2022/12/12 07:43:05;;;;;;;;;;;1.50;99.90;;;;;;4998077;28;19925;-61
2022/12/12 07:45:31;;;;;;;;;;;1.60;99.90;;;;;;4987521;28;19917;-60
2022/12/12 07:47:57;;;;;;;;;;;1.60;99.90;;;;;;5003882;28;19910;-61
2022/12/12 07:50:22;;;;;;;;;;;1.60;99.90;;;;;;4998242;28;19917;-61
2022/12/12 07:52:48;;;;;;;;;;;1.60;99.90;;;;;;4999820;28;19917;-60
2022/12/12 07:55:13;;;;;;;;;;;1.60;99.90;;;;;;4983378;28;20008;-62
2022/12/12 07:57:40;;;;;;;;;;;1.60;99.90;;;;;;5002021;28;19913;-59
2022/12/12 08:00:07;;;;;;;;;;;1.60;99.90;;;;;;4999393;28;20378;-62
2022/12/12 08:02:32;;;;;;;;;;;1.60;99.90;;;;;;4995771;28;20142;-60
2022/12/12 08:04:57;;;;;;;;;;;1.70;99.90;;;;;;4999916;28;20008;-61
2022/12/12 08:07:23;;;;;;;;;;;1.70;99.90;;;;;;4995612;28;19929;-61
2022/12/12 08:09:48;;;;;;;;;;;1.70;99.90;;;;;;4999366;28;19980;-62
2022/12/12 08:12:14;;;;;;;;;;;1.70;99.90;;;;;;4991629;28;20040;-59
2022/12/12 08:14:39;;;;;;;;;;;1.60;99.90;;;;;;4993643;28;19921;-61
2022/12/12 08:17:05;;;;;;;;;;;1.50;99.90;;;;;;4995136;28;19914;-62
2022/12/12 08:19:31;;;;;;;;;;;1.60;99.90;;;;;;5006694;28;20426;-60
2022/12/12 08:21:56;;;;;;;;;;;1.60;99.90;;;;;;5009474;28;19910;-60
2022/12/12 08:24:22;;;;;;;;;;;1.70;99.90;;;;;;4995902;28;19941;-63
2022/12/12 08:26:48;;;;;;;;;;;1.60;99.90;;;;;;5007805;28;19918;-61
2022/12/12 08:29:13;;;;;;;;;;;1.60;99.90;;;;;;5001888;28;20251;-60
2022/12/12 08:31:39;;;;;;;;;;;1.70;99.90;;;;;;5015245;28;20434;-61
2022/12/12 08:34:04;;;;;;;;;;;1.70;99.90;;;;;;5005337;28;20344;-59
2022/12/12 08:36:31;;;;;;;;;;;1.60;99.90;;;;;;5005423;28;19913;-60
2022/12/12 08:38:58;;;;;;;;;;;1.60;99.90;;;;;;5005136;28;20324;-61
2022/12/12 08:41:24;;;;;;;;;;;1.50;99.90;;;;;;5008643;28;19936;-62
2022/12/12 08:43:49;;;;;;;;;;;1.60;99.90;;;;;;5005473;28;19929;-61
2022/12/12 08:46:15;;;;;;;;;;;1.70;99.90;;;;;;5001563;28;19913;-60
2022/12/12 08:48:41;;;;;;;;;;;1.70;99.90;;;;;;4998452;28;20434;-60
2022/12/12 08:51:06;;;;;;;;;;;1.70;99.90;;;;;;5007903;28;19977;-61
2022/12/12 08:53:32;;;;;;;;;;;1.70;99.90;;;;;;4996382;28;19927;-61
2022/12/12 08:55:57;;;;;;;;;;;1.70;99.90;;;;;;5007370;28;20122;-63
2022/12/12 08:58:23;;;;;;;;;;;1.70;99.90;;;;;;5006641;28;20367;-63
2022/12/12 09:00:48;;;;;;;;;;;1.70;99.90;;;;;;5007463;28;19917;-61
2022/12/12 09:03:14;;;;;;;;;;;1.80;99.90;;;;;;5001704;28;19928;-61
2022/12/12 09:05:43;;;;;;;;;;;1.80;99.90;;;;;;5005927;28;19913;-62
2022/12/12 09:08:09;;;;;;;;;;;1.90;99.90;;;;;;5004358;28;20130;-60
2022/12/12 09:10:34;;;;;;;;;;;1.80;99.90;;;;;;5003938;28;20499;-59
2022/12/12 09:12:59;;;;;;;;;;;1.70;99.90;;;;;;4993352;28;20134;-63
2022/12/12 09:15:25;;;;;;;;;;;1.80;99.90;;;;;;5006472;28;19971;-60
2022/12/12 09:17:50;;;;;;;;;;;1.90;99.90;;;;;;5004300;28;19913;-60
2022/12/12 09:20:16;;;;;;;;;;;1.80;99.90;;;;;;5006097;28;20258;-61
2022/12/12 09:22:42;;;;;;;;;;;1.90;99.90;;;;;;4997069;28;19995;-62
2022/12/12 09:25:07;;;;;;;;;;;2.00;99.90;;;;;;5004005;28;19921;-61
2022/12/12 09:27:33;;;;;;;;;;;2.00;99.90;;;;;;4983281;28;19909;-61
2022/12/12 09:29:59;;;;;;;;;;;2.00;99.90;;;;;;5001093;28;19952;-62
2022/12/12 09:32:25;;;;;;;;;;;2.10;99.90;;;;;;4998875;28;19914;-62
2022/12/12 09:34:50;;;;;;;;;;;2.10;99.90;;;;;;4992180;28;19920;-61
2022/12/12 09:37:16;;;;;;;;;;;2.10;99.90;;;;;;4995499;28;19968;-61
2022/12/12 09:39:42;;;;;;;;;;;2.10;99.90;;;;;;4997649;28;19913;-61
2022/12/12 09:42:17;;;;;;;;;;;2.10;99.90;;;;;;4998398;28;19932;-61
2022/12/12 09:44:43;;;;;;;;;;;2.10;99.90;;;;;;4999174;28;19913;-60
2022/12/12 09:47:14;;;;;;;;;;;2.20;99.90;;;;;;4998935;28;19920;-60
2022/12/12 09:49:47;;;;;;;;;;;2.30;99.90;;;;;;5003879;28;19967;-60
2022/12/12 09:52:14;;;;;;;;;;;2.40;99.90;;;;;;5001777;28;20402;-60
2022/12/12 09:54:40;;;;;;;;;;;2.40;99.90;;;;;;5001855;28;19939;-60
2022/12/12 09:57:18;;;;;;;;;;;2.30;99.90;;;;;;4999617;28;19924;-61
2022/12/12 09:59:50;;;;;;;;;;;2.20;99.90;;;;;;4998499;28;20356;-60
2022/12/12 10:02:34;;;;;;;;;;;2.10;99.90;;;;;;4994806;28;19955;-61
2022/12/12 10:05:01;;;;;;;;;;;2.30;99.90;;;;;;4995266;28;19909;-61
2022/12/12 10:07:45;;;;;;;;;;;2.30;99.90;;;;;;5005430;28;19997;-61
2022/12/12 10:10:10;;;;;;;;;;;2.30;99.90;;;;;;4992423;28;20445;-60
2022/12/12 10:12:36;;;;;;;;;;;2.30;99.90;;;;;;5000766;28;19979;-61
2022/12/12 10:15:19;;;;;;;;;;;2.30;99.90;;;;;;4998279;28;20017;-61
2022/12/12 10:17:45;;;;;;;;;;;2.40;99.90;;;;;;5013507;28;19913;-60
2022/12/12 10:20:19;;;;;;;;;;;2.30;99.90;;;;;;5013049;28;19924;-61
2022/12/12 10:22:47;;;;;;;;;;;2.40;99.90;;;;;;5000224;28;19918;-62
2022/12/12 10:25:23;;;;;;;;;;;2.50;99.90;;;;;;5000955;28;20016;-60
2022/12/12 10:27:50;;;;;;;;;;;2.30;99.90;;;;;;4999335;28;19918;-61
2022/12/12 10:30:17;;;;;;;;;;;2.40;99.90;;;;;;5006756;28;19913;-61
2022/12/12 10:32:54;;;;;;;;;;;2.50;99.90;;;;;;5003642;28;19910;-61
2022/12/12 10:35:31;;;;;;;;;;;2.30;99.90;;;;;;5006538;28;20152;-61
2022/12/12 10:38:03;;;;;;;;;;;2.30;99.90;;;;;;5002092;28;19916;-62
2022/12/12 10:40:41;;;;;;;;;;;2.50;99.90;;;;;;4999418;28;20326;-59
2022/12/12 10:43:16;;;;;;;;;;;2.50;99.90;;;;;;4996341;28;20004;-62
2022/12/12 10:45:58;;;;;;;;;;;2.50;99.90;;;;;;4993769;28;20025;-60
2022/12/12 10:48:23;;;;;;;;;;;2.50;99.90;;;;;;4992155;28;19960;-61
2022/12/12 10:50:51;;;;;;;;;;;2.50;99.90;;;;;;4999053;28;19914;-60
2022/12/12 10:53:18;;;;;;;;;;;2.60;99.90;;;;;;4999144;28;19910;-61
2022/12/12 10:55:52;;;;;;;;;;;2.70;99.90;;;;;;4998427;28;19918;-61
2022/12/12 10:58:18;;;;;;;;;;;2.60;99.90;;;;;;5003999;28;19917;-60
2022/12/12 11:00:44;;;;;;;;;;;2.60;99.90;;;;;;5002997;28;19968;-60
2022/12/12 11:03:10;;;;;;;;;;;2.60;99.90;;;;;;4985826;28;20286;-61
2022/12/12 11:05:37;;;;;;;;;;;2.60;99.90;;;;;;4997229;28;19914;-61
2022/12/12 11:08:16;;;;;;;;;;;2.70;99.90;;;;;;5004042;28;19944;-61
2022/12/12 11:10:42;;;;;;;;;;;2.70;99.90;;;;;;5001365;28;19914;-62
2022/12/12 11:13:08;;;;;;;;;;;2.80;99.90;;;;;;5002611;28;19910;-61
2022/12/12 11:15:42;;;;;;;;;;;2.90;99.90;;;;;;5004707;28;19922;-61
2022/12/12 11:18:18;;;;;;;;;;;2.80;99.90;;;;;;5002234;28;20003;-61
2022/12/12 11:20:49;;;;;;;;;;;3.00;99.90;;;;;;5003730;28;19921;-61
2022/12/12 11:23:17;;;;;;;;;;;3.10;99.90;;;;;;4999654;28;19929;-62
2022/12/12 11:25:42;;;;;;;;;;;3.10;99.90;;;;;;4996327;28;19916;-60
2022/12/12 11:28:13;;;;;;;;;;;3.20;99.90;;;;;;5000436;28;19917;-60
2022/12/12 11:30:41;;;;;;;;;;;3.30;99.90;;;;;;5001530;28;20333;-59
2022/12/12 11:33:07;;;;;;;;;;;3.70;99.90;;;;;;5003546;28;19909;-60
2022/12/12 11:35:34;;;;;;;;;;;3.90;99.90;;;;;;5004252;28;20260;-60
2022/12/12 11:38:02;;;;;;;;;;;4.20;99.90;;;;;;5003865;28;19910;-61
2022/12/12 11:40:29;;;;;;;;;;;4.30;99.90;;;;;;5002922;28;19910;-60
2022/12/12 11:43:06;;;;;;;;;;;3.80;99.90;;;;;;5004156;28;19917;-62
2022/12/12 11:45:31;;;;;;;;;;;3.70;99.90;;;;;;5001022;28;19914;-60
2022/12/12 11:47:57;;;;;;;;;;;3.80;99.90;;;;;;5004383;28;19955;-60
2022/12/12 11:50:27;;;;;;;;;;;3.80;99.90;;;;;;5004416;28;19913;-61
2022/12/12 11:52:54;;;;;;;;;;;3.90;99.90;;;;;;4996927;28;19914;-60
2022/12/12 11:55:28;;;;;;;;;;;4.00;99.90;;;;;;4982037;28;20448;-60
2022/12/12 11:58:09;;;;;;;;;;;4.10;99.90;;;;;;5000885;28;19910;-61
2022/12/12 12:00:43;;;;;;;;;;;4.40;99.90;;;;;;5002002;28;19920;-60
2022/12/12 12:03:18;;;;;;;;;;;4.50;99.90;;;;;;5010870;28;19913;-62
2022/12/12 12:05:44;;;;;;;;;;;4.70;99.90;;;;;;5003353;28;20354;-62
2022/12/12 12:08:28;;;;;;;;;;;4.40;99.90;;;;;;5000741;28;20301;-60
2022/12/12 12:10:59;;;;;;;;;;;4.30;99.90;;;;;;4995159;28;19921;-61
2022/12/12 12:13:28;;;;;;;;;;;4.20;99.90;;;;;;4996224;28;20298;-60
2022/12/12 12:15:56;;;;;;;;;;;4.20;99.90;;;;;;4999877;28;19917;-60
2022/12/12 12:18:40;;;;;;;;;;;4.30;99.90;;;;;;4997593;28;20231;-60
2022/12/12 12:21:08;;;;;;;;;;;3.90;99.90;;;;;;4987360;28;19914;-60
2022/12/12 12:23:45;;;;;;;;;;;4.00;99.90;;;;;;4990241;28;19917;-60
2022/12/12 12:26:18;;;;;;;;;;;4.20;99.90;;;;;;4994437;28;19914;-60
2022/12/12 12:28:53;;;;;;;;;;;4.30;99.90;;;;;;4999053;28;20282;-60
2022/12/12 12:31:37;;;;;;;;;;;4.10;99.90;;;;;;4999528;28;20378;-62
2022/12/12 12:34:10;;;;;;;;;;;4.00;99.90;;;;;;4992210;28;20305;-61
2022/12/12 12:36:38;;;;;;;;;;;4.10;99.90;;;;;;4999093;28;19953;-60
2022/12/12 12:39:21;;;;;;;;;;;4.40;99.90;;;;;;4999202;28;20377;-61
2022/12/12 12:41:58;;;;;;;;;;;4.90;99.90;;;;;;5000080;28;20367;-59
2022/12/12 12:44:30;;;;;;;;;;;4.40;99.90;;;;;;4983745;28;19921;-61
2022/12/12 12:46:55;;;;;;;;;;;4.40;99.90;;;;;;4995960;28;19956;-62
2022/12/12 12:49:33;;;;;;;;;;;4.10;99.90;;;;;;4992564;28;19982;-61
2022/12/12 12:52:09;;;;;;;;;;;4.10;99.90;;;;;;4997082;28;19936;-62
2022/12/12 12:54:38;;;;;;;;;;;3.90;99.90;;;;;;5003636;28;19921;-62
2022/12/12 12:57:16;;;;;;;;;;;4.30;99.90;;;;;;4994248;28;19921;-62
2022/12/12 12:59:44;;;;;;;;;;;4.60;99.90;;;;;;4998976;28;19968;-61
2022/12/12 13:02:14;;;;;;;;;;;4.70;99.90;;;;;;4998057;28;19909;-59
2022/12/12 13:04:44;;;;;;;;;;;4.90;99.90;;;;;;4997109;28;19930;-61
2022/12/12 13:07:10;;;;;;;;;;;5.00;99.90;;;;;;5000815;28;19909;-60
2022/12/12 13:09:39;;;;;;;;;;;4.40;99.90;;;;;;4998909;28;19917;-61
2022/12/12 13:12:17;;;;;;;;;;;4.10;99.90;;;;;;5000311;28;19917;-60
2022/12/12 13:14:45;;;;;;;;;;;4.10;99.90;;;;;;5040274;23;19925;-67
2022/12/12 13:17:15;;;;;;;;;;;4.00;99.90;;;;;;5024200;28;19964;-69
2022/12/12 13:19:44;;;;;;;;;;;3.70;99.90;;;;;;5025878;28;19909;-68
2022/12/12 13:22:28;;;;;;;;;;;3.40;99.90;;;;;;5025127;28;19910;-68
2022/12/12 13:25:01;;;;;;;;;;;2.90;99.90;;;;;;5018215;28;19925;-68
2022/12/12 13:27:35;;;;;;;;;;;2.90;99.90;;;;;;5006912;28;20402;-68
2022/12/12 13:30:09;;;;;;;;;;;3.00;99.90;;;;;;5006526;28;19913;-68
2022/12/12 13:32:43;;;;;;;;;;;3.00;99.90;;;;;;5007918;28;20241;-67
2022/12/12 13:35:11;;;;;;;;;;;2.50;99.90;;;;;;5007862;28;19976;-68
2022/12/12 13:37:43;;;;;;;;;;;2.40;99.90;;;;;;5006441;28;19937;-67
2022/12/12 13:40:19;;;;;;;;;;;2.40;99.90;;;;;;5007843;28;19910;-68
2022/12/12 13:43:04;;;;;;;;;;;2.40;99.90;;;;;;5006187;28;20244;-67
2022/12/12 13:45:44;;;;;;;;;;;2.40;99.90;;;;;;5006859;28;20385;-68
2022/12/12 13:48:29;;;;;;;;;;;2.30;99.90;;;;;;5003969;28;19968;-68
2022/12/12 13:51:13;;;;;;;;;;;2.30;99.90;;;;;;5007622;28;20629;-68
2022/12/12 13:53:39;;;;;;;;;;;2.30;99.90;;;;;;5002431;28;19963;-68
2022/12/12 13:56:23;;;;;;;;;;;2.30;99.90;;;;;;5010374;28;20008;-69
2022/12/12 13:58:48;;;;;;;;;;;2.30;99.90;;;;;;5005482;28;19980;-68
2022/12/12 14:01:37;;;;;;;;;;;2.30;99.90;;;;;;5007310;28;20204;-68
2022/12/12 14:04:03;;;;;;;;;;;2.40;99.90;;;;;;5002015;28;20429;-68
2022/12/12 14:06:29;;;;;;;;;;;2.50;99.90;;;;;;5006125;28;19920;-67
2022/12/12 14:08:55;;;;;;;;;;;2.50;99.90;;;;;;5006155;28;19996;-67
2022/12/12 14:11:39;;;;;;;;;;;2.20;99.90;;;;;;5008515;28;20333;-68
2022/12/12 14:14:15;;;;;;;;;;;2.10;99.90;;;;;;5005577;28;19909;-68
2022/12/12 14:16:41;;;;;;;;;;;2.00;99.90;;;;;;5006408;28;20024;-67
2022/12/12 14:19:17;;;;;;;;;;;2.10;99.90;;;;;;5005790;28;20012;-67
2022/12/12 14:21:44;;;;;;;;;;;2.10;99.90;;;;;;5005942;28;19909;-67
2022/12/12 14:24:28;;;;;;;;;;;2.00;99.90;;;;;;5004768;28;20271;-68
2022/12/12 14:26:54;;;;;;;;;;;2.10;99.90;;;;;;5005663;28;19924;-67
2022/12/12 14:29:24;;;;;;;;;;;2.00;99.90;;;;;;4985873;28;19921;-67
2022/12/12 14:31:58;;;;;;;;;;;2.10;99.90;;;;;;5008524;28;19913;-67
2022/12/12 14:34:28;;;;;;;;;;;2.10;99.90;;;;;;5002721;28;19920;-67
2022/12/12 14:37:05;;;;;;;;;;;2.10;99.90;;;;;;5008890;28;19924;-70
2022/12/12 14:39:40;;;;;;;;;;;2.10;99.90;;;;;;5005077;28;20333;-68
2022/12/12 14:42:06;;;;;;;;;;;2.10;99.90;;;;;;5002911;28;19932;-67
2022/12/12 14:44:32;;;;;;;;;;;1.90;99.90;;;;;;5007329;28;19921;-66
2022/12/12 14:46:58;;;;;;;;;;;1.90;99.90;;;;;;5006387;28;19921;-66
2022/12/12 14:49:36;;;;;;;;;;;2.00;99.90;;;;;;4990727;28;19919;-71
2022/12/12 14:52:01;;;;;;;;;;;2.10;99.90;;;;;;5005365;28;19924;-68
2022/12/12 14:54:27;;;;;;;;;;;2.00;99.90;;;;;;5004857;28;19910;-67